Temp: 11.6°C   Baro: 1005.0mb
  Wind: 4.9mph   Dir: W (280°)
  Rain: 7.8mm (0.0mm/hr)
  Solar: 69W/m2  Hum: 91%
 
Bath Spa Weather Historical Data
Daily Summary for January 20, 2020 Units:  Metric    English   Both
Next Day »
Daily Weekly Monthly Yearly Custom
  High: Low: Average:
Temperature: 8.1 °C -1.3 °C 2 °C
Dew Point: 4.4 °C -2.1 °C 0.5 °C
Humidity: 95% 76% 90%
Wind Speed: 13.0km/h 0.0km/h 1.3km/h
Wind Gust: 12.9km/h - -
Wind direction- - WNW
Pressure: 1049.7 hPa 1044.9 hPa -
Precipitation: 0.3 mm    
Historical Graphs
 
 
Tabular Data for January 20, 2020
Time Temperature Dew Point Pressure Wind direction Wind Speed Wind Gust Humidity Rainfall Rate (Hourly) solar
00:00 0.2 °C -0.8 °C 1049.0 hPa Calm     93% 0.0 mm 0.00 W/m2
00:05 0.3 °C -0.7 °C 1049.0 hPa Calm   1.6 km/h 93% 0.0 mm 0.00 W/m2
00:10 0.2 °C -0.8 °C 1049.3 hPa NW 1.4 km/h 3.2 km/h 93% 0.0 mm 0.00 W/m2
00:15 0.2 °C -0.8 °C 1049.3 hPa NW 1.4 km/h 1.6 km/h 93% 0.0 mm 0.00 W/m2
00:20 0.3 °C -0.7 °C 1049.3 hPa NW 1.4 km/h 1.6 km/h 93% 0.0 mm 0.00 W/m2
00:25 0.3 °C -0.7 °C 1049.3 hPa Calm   1.6 km/h 93% 0.0 mm 0.00 W/m2
00:30 0.3 °C -0.7 °C 1049.3 hPa Calm     93% 0.0 mm 0.00 W/m2
00:35 0.3 °C -0.7 °C 1049.3 hPa Calm   1.6 km/h 93% 0.0 mm 0.00 W/m2
00:40 0.4 °C -0.6 °C 1049.3 hPa Calm   1.6 km/h 93% 0.0 mm 0.00 W/m2
00:45 0.4 °C -0.6 °C 1049.3 hPa Calm   1.6 km/h 93% 0.0 mm 0.00 W/m2
00:50 0.5 °C -0.5 °C 1049.3 hPa Calm     93% 0.0 mm 0.00 W/m2
00:55 0.5 °C -0.5 °C 1049.3 hPa Calm     93% 0.0 mm 0.00 W/m2
01:00 0.5 °C -0.5 °C 1049.3 hPa Calm   1.6 km/h 93% 0.0 mm 0.00 W/m2
01:05 0.5 °C -0.5 °C 1049.3 hPa Calm     93% 0.0 mm 0.00 W/m2
01:10 0.6 °C -0.4 °C 1049.3 hPa NW 1.4 km/h 1.6 km/h 93% 0.0 mm 0.00 W/m2
01:15 0.4 °C -0.6 °C 1049.3 hPa NW 1.4 km/h 1.6 km/h 93% 0.0 mm 0.00 W/m2
01:20 0.4 °C -0.6 °C 1049.3 hPa Calm   1.6 km/h 93% 0.0 mm 0.00 W/m2
01:25 0.3 °C -0.7 °C 1049.3 hPa Calm     93% 0.0 mm 0.00 W/m2
01:30 0.3 °C -0.7 °C 1049.3 hPa Calm     93% 0.0 mm 0.00 W/m2
01:35 0.3 °C -0.7 °C 1049.3 hPa Calm     93% 0.0 mm 0.00 W/m2
01:40 0.4 °C -0.5 °C 1049.3 hPa Calm     94% 0.0 mm 0.00 W/m2
01:45 0.3 °C -0.6 °C 1049.3 hPa Calm   1.6 km/h 94% 0.0 mm 0.00 W/m2
01:50 0.3 °C -0.6 °C 1049.3 hPa Calm   1.6 km/h 94% 0.0 mm 0.00 W/m2
01:55 0.2 °C -0.8 °C 1049.3 hPa NW 1.4 km/h 1.6 km/h 93% 0.0 mm 0.00 W/m2
02:00 0.1 °C -0.9 °C 1049.3 hPa Calm   1.6 km/h 93% 0.0 mm 0.00 W/m2
02:05 0.1 °C -0.9 °C 1049.3 hPa Calm     93% 0.0 mm 0.00 W/m2
02:10 -0.1 °C -0.9 °C 1049.7 hPa Calm     94% 0.0 mm 0.00 W/m2
02:15 -0.2 °C -1.0 °C 1049.3 hPa Calm     94% 0.0 mm 0.00 W/m2
02:20 -0.2 °C -1.2 °C 1049.3 hPa Calm     93% 0.0 mm 0.00 W/m2
02:25 -0.2 °C -1.2 °C 1049.3 hPa Calm     93% 0.0 mm 0.00 W/m2
02:30 -0.3 °C -1.3 °C 1049.3 hPa Calm     93% 0.0 mm 0.00 W/m2
02:35 -0.3 °C -1.1 °C 1049.3 hPa Calm     94% 0.0 mm 0.00 W/m2
02:40 -0.3 °C -1.1 °C 1049.0 hPa Calm   1.6 km/h 94% 0.0 mm 0.00 W/m2
02:45 -0.4 °C -1.2 °C 1048.6 hPa Calm     94% 0.0 mm 0.00 W/m2
02:50 -0.5 °C -1.3 °C 1048.6 hPa NW 1.4 km/h 3.2 km/h 94% 0.0 mm 0.00 W/m2
02:55 -0.5 °C -1.3 °C 1048.6 hPa NW 1.4 km/h 1.6 km/h 94% 0.0 mm 0.00 W/m2
03:00 -0.5 °C -1.3 °C 1048.6 hPa NW 1.4 km/h 1.6 km/h 94% 0.0 mm 0.00 W/m2
03:05 -0.6 °C -1.4 °C 1048.6 hPa Calm   1.6 km/h 94% 0.0 mm 0.00 W/m2
03:10 -0.6 °C -1.4 °C 1048.6 hPa Calm   1.6 km/h 94% 0.0 mm 0.00 W/m2
03:15 -0.7 °C -1.5 °C 1048.6 hPa Calm   1.6 km/h 94% 0.0 mm 0.00 W/m2
03:20 -0.7 °C -1.5 °C 1048.6 hPa Calm   1.6 km/h 94% 0.0 mm 0.00 W/m2
03:25 -0.8 °C -1.6 °C 1048.6 hPa NW 1.4 km/h 3.2 km/h 94% 0.0 mm 0.00 W/m2
03:30 -0.8 °C -1.6 °C 1048.6 hPa Calm     94% 0.0 mm 0.00 W/m2
03:35 -0.8 °C -1.6 °C 1048.6 hPa Calm     94% 0.0 mm 0.00 W/m2
03:40 -0.8 °C -1.6 °C 1049.0 hPa Calm   3.2 km/h 94% 0.0 mm 0.00 W/m2
03:45 -0.7 °C -1.5 °C 1048.6 hPa Calm     94% 0.0 mm 0.00 W/m2
03:50 -0.7 °C -1.5 °C 1048.6 hPa Calm   1.6 km/h 94% 0.0 mm 0.00 W/m2
03:55 -0.8 °C -1.6 °C 1048.6 hPa Calm     94% 0.0 mm 0.00 W/m2
04:00 -0.8 °C -1.6 °C 1048.6 hPa Calm   1.6 km/h 94% 0.0 mm 0.00 W/m2
04:05 -0.8 °C -1.6 °C 1048.6 hPa Calm   1.6 km/h 94% 0.0 mm 0.00 W/m2
04:10 -0.8 °C -1.6 °C 1048.6 hPa Calm     94% 0.0 mm 0.00 W/m2
04:15 -0.8 °C -1.6 °C 1048.6 hPa Calm   1.6 km/h 94% 0.0 mm 0.00 W/m2
04:20 -0.9 °C -1.7 °C 1048.6 hPa Calm   1.6 km/h 94% 0.0 mm 0.00 W/m2
04:25 -0.9 °C -1.7 °C 1048.6 hPa Calm     94% 0.0 mm 0.00 W/m2
04:30 -0.9 °C -1.7 °C 1048.6 hPa Calm     94% 0.0 mm 0.00 W/m2
04:35 -1.1 °C -1.9 °C 1048.6 hPa Calm     94% 0.0 mm 0.00 W/m2
04:40 -1.0 °C -1.8 °C 1048.6 hPa Calm   1.6 km/h 94% 0.0 mm 0.00 W/m2
04:45 -1.0 °C -1.8 °C 1048.6 hPa Calm     94% 0.0 mm 0.00 W/m2
04:50 -1.0 °C -1.8 °C 1048.6 hPa Calm     94% 0.0 mm 0.00 W/m2
04:55 -1.1 °C -1.9 °C 1048.6 hPa Calm     94% 0.0 mm 0.00 W/m2
05:00 -1.1 °C -1.9 °C 1048.6 hPa Calm     94% 0.0 mm 0.00 W/m2
05:05 -1.2 °C -2.0 °C 1048.6 hPa Calm   1.6 km/h 94% 0.0 mm 0.00 W/m2
05:10 -1.2 °C -2.0 °C 1048.6 hPa Calm   1.6 km/h 94% 0.0 mm 0.00 W/m2
05:15 -1.2 °C -2.0 °C 1048.6 hPa Calm     94% 0.0 mm 0.00 W/m2
05:20 -1.1 °C -1.9 °C 1048.6 hPa Calm     94% 0.0 mm 0.00 W/m2
05:25 -1.1 °C -1.9 °C 1048.6 hPa Calm     94% 0.0 mm 0.00 W/m2
05:30 -1.2 °C -2.0 °C 1048.6 hPa Calm     94% 0.0 mm 0.00 W/m2
05:35 -1.2 °C -2.0 °C 1048.6 hPa Calm   1.6 km/h 94% 0.0 mm 0.00 W/m2
05:40 -1.2 °C -2.0 °C 1048.6 hPa Calm     94% 0.0 mm 0.00 W/m2
05:45 -1.2 °C -2.0 °C 1048.6 hPa Calm   1.6 km/h 94% 0.0 mm 0.00 W/m2
05:50 -1.1 °C -1.9 °C 1049.0 hPa NW 1.4 km/h 3.2 km/h 94% 0.0 mm 0.00 W/m2
05:55 -1.1 °C -1.9 °C 1048.6 hPa Calm   3.2 km/h 94% 0.0 mm 0.00 W/m2
06:00 -1.1 °C -1.9 °C 1049.0 hPa Calm     94% 0.0 mm 0.00 W/m2
06:05 -1.2 °C -2.0 °C 1049.0 hPa Calm     94% 0.0 mm 0.00 W/m2
06:10 -1.1 °C -1.9 °C 1049.0 hPa Calm   1.6 km/h 94% 0.0 mm 0.00 W/m2
06:15 -1.2 °C -2.0 °C 1049.0 hPa Calm     94% 0.0 mm 0.00 W/m2
06:20 -1.2 °C -2.0 °C 1048.6 hPa Calm     94% 0.0 mm 0.00 W/m2
06:25 -1.2 °C -2.0 °C 1049.0 hPa Calm   1.6 km/h 94% 0.0 mm 0.00 W/m2
06:31 -1.2 °C -2.0 °C 1048.6 hPa Calm     94% 0.0 mm 0.00 W/m2
06:35 -1.1 °C -1.9 °C 1048.6 hPa Calm     94% 0.0 mm 0.00 W/m2
06:40 -1.2 °C -2.0 °C 1049.0 hPa Calm     94% 0.0 mm 0.00 W/m2
06:45 -1.2 °C -2.0 °C 1049.0 hPa NW 3.2 km/h 3.2 km/h 94% 0.0 mm 0.00 W/m2
06:50 -1.2 °C -2.0 °C 1049.0 hPa NW 1.4 km/h 1.6 km/h 94% 0.0 mm 0.00 W/m2
06:55 -1.2 °C -2.0 °C 1049.0 hPa Calm     94% 0.0 mm 0.00 W/m2
07:00 -1.2 °C -2.0 °C 1049.0 hPa Calm     94% 0.0 mm 0.00 W/m2
07:05 -1.2 °C -2.0 °C 1049.0 hPa Calm   1.6 km/h 94% 0.0 mm 0.00 W/m2
07:10 -1.2 °C -2.0 °C 1049.0 hPa Calm     94% 0.0 mm 0.00 W/m2
07:15 -1.3 °C -2.1 °C 1049.0 hPa Calm     94% 0.0 mm 0.00 W/m2
07:20 -1.3 °C -2.1 °C 1049.0 hPa Calm     94% 0.0 mm 0.00 W/m2
07:25 -1.2 °C -2.0 °C 1049.0 hPa Calm   1.6 km/h 94% 0.0 mm 0.00 W/m2
07:31 -1.2 °C -2.0 °C 1049.0 hPa Calm   1.6 km/h 94% 0.0 mm 0.00 W/m2
07:35 -1.2 °C -2.0 °C 1049.0 hPa Calm   1.6 km/h 94% 0.0 mm 0.00 W/m2
07:40 -1.1 °C -1.9 °C 1049.0 hPa Calm   1.6 km/h 94% 0.0 mm 0.00 W/m2
07:45 -1.0 °C -1.8 °C 1049.0 hPa Calm     94% 0.0 mm 0.00 W/m2
07:50 -0.9 °C -1.7 °C 1049.0 hPa Calm   1.6 km/h 94% 0.0 mm 0.00 W/m2
07:55 -0.9 °C -1.7 °C 1049.0 hPa Calm   1.6 km/h 94% 0.0 mm 0.00 W/m2
08:00 -0.8 °C -1.6 °C 1049.0 hPa Calm   1.6 km/h 94% 0.0 mm 0.00 W/m2
08:05 -0.9 °C -1.7 °C 1049.0 hPa Calm   1.6 km/h 94% 0.0 mm 0.00 W/m2
08:10 -0.9 °C -1.7 °C 1049.0 hPa NW 1.4 km/h 1.6 km/h 94% 0.0 mm 0.00 W/m2
08:15 -0.9 °C -1.6 °C 1049.3 hPa Calm     95% 0.0 mm 5.00 W/m2
08:20 -0.9 °C -1.7 °C 1049.0 hPa Calm   1.6 km/h 94% 0.0 mm 7.00 W/m2
08:25 -0.9 °C -1.6 °C 1049.3 hPa Calm     95% 0.0 mm 7.00 W/m2
08:30 -0.9 °C -1.7 °C 1049.3 hPa Calm     94% 0.0 mm 9.00 W/m2
08:35 -0.9 °C -1.7 °C 1049.3 hPa Calm   1.6 km/h 94% 0.0 mm 11.00 W/m2
08:40 -0.8 °C -1.5 °C 1049.3 hPa Calm   1.6 km/h 95% 0.0 mm 14.00 W/m2
08:45 -0.7 °C -1.5 °C 1049.3 hPa Calm     94% 0.0 mm 23.00 W/m2
08:50 -0.8 °C -1.5 °C 1049.3 hPa Calm   1.6 km/h 95% 0.0 mm 26.00 W/m2
08:55 -0.6 °C -1.4 °C 1049.3 hPa Calm   1.6 km/h 94% 0.0 mm 25.00 W/m2
09:00 -0.4 °C -1.1 °C 1049.3 hPa Calm   1.6 km/h 95% 0.0 mm 21.00 W/m2
09:05 -0.4 °C -1.1 °C 1049.3 hPa NNW 1.4 km/h 1.6 km/h 95% 0.0 mm 19.00 W/m2
09:10 -0.4 °C -1.1 °C 1049.3 hPa Calm   1.6 km/h 95% 0.0 mm 23.00 W/m2
09:15 -0.2 °C -0.9 °C 1049.3 hPa Calm     95% 0.0 mm 23.00 W/m2
09:20 -0.1 °C -0.8 °C 1049.3 hPa Calm     95% 0.0 mm 21.00 W/m2
09:25 -0.4 °C -1.1 °C 1049.3 hPa Calm     95% 0.0 mm 26.00 W/m2
09:30 -0.1 °C -0.8 °C 1049.3 hPa Calm   1.6 km/h 95% 0.0 mm 25.00 W/m2
09:35 -0.3 °C -1.0 °C 1049.3 hPa NNW 1.4 km/h 3.2 km/h 95% 0.0 mm 33.00 W/m2
09:40 0.1 °C -0.6 °C 1049.3 hPa Calm     95% 0.0 mm 37.00 W/m2
09:45 0.3 °C -0.4 °C 1049.3 hPa Calm   1.6 km/h 95% 0.0 mm 42.00 W/m2
09:50 0.4 °C -0.3 °C 1049.3 hPa Calm     95% 0.0 mm 49.00 W/m2
09:55 0.8 °C 0.1 °C 1049.3 hPa Calm     95% 0.0 mm 60.00 W/m2
10:00 0.9 °C 0.2 °C 1049.3 hPa Calm     95% 0.0 mm 69.00 W/m2
10:05 1.2 °C 0.3 °C 1049.3 hPa Calm     94% 0.0 mm 77.00 W/m2
10:10 1.5 °C 0.6 °C 1049.3 hPa Calm   1.6 km/h 94% 0.0 mm 84.00 W/m2
10:15 1.6 °C 0.7 °C 1049.3 hPa Calm   1.6 km/h 94% 0.0 mm 95.00 W/m2
10:20 2.2 °C 1.3 °C 1049.3 hPa Calm   1.6 km/h 94% 0.0 mm 105.00 W/m2
10:25 2.6 °C 1.7 °C 1049.3 hPa Calm   1.6 km/h 94% 0.0 mm 114.00 W/m2
10:30 2.4 °C 1.5 °C 1049.3 hPa Calm     94% 0.0 mm 125.00 W/m2
10:35 2.7 °C 1.7 °C 1049.3 hPa Calm     93% 0.0 mm 137.00 W/m2
10:40 3.1 °C 2.1 °C 1049.3 hPa Calm   1.6 km/h 93% 0.0 mm 151.00 W/m2
10:45 3.5 °C 2.3 °C 1049.3 hPa Calm     92% 0.0 mm 162.00 W/m2
10:50 4.3 °C 3.0 °C 1049.3 hPa Calm     91% 0.0 mm 167.00 W/m2
10:55 4.0 °C 2.4 °C 1049.3 hPa Calm   1.6 km/h 89% 0.0 mm 171.00 W/m2
11:00 4.0 °C 2.2 °C 1049.3 hPa NNW 1.4 km/h 3.2 km/h 88% 0.0 mm 172.00 W/m2
11:05 3.9 °C 2.1 °C 1049.3 hPa NNW 1.4 km/h 3.2 km/h 88% 0.0 mm 178.00 W/m2
11:10 4.1 °C 2.3 °C 1049.0 hPa NW 4.7 km/h 4.8 km/h 88% 0.0 mm 183.00 W/m2
11:15 4.3 °C 2.5 °C 1049.0 hPa West 6.4 km/h 6.4 km/h 88% 0.0 mm 188.00 W/m2
11:20 4.1 °C 2.1 °C 1049.0 hPa WNW 1.4 km/h 6.4 km/h 87% 0.0 mm 193.00 W/m2
11:25 4.3 °C 2.3 °C 1049.0 hPa West 7.9 km/h 8.0 km/h 87% 0.0 mm 202.00 W/m2
11:30 4.3 °C 2.3 °C 1048.6 hPa West 6.4 km/h 8.0 km/h 87% 0.0 mm 207.00 W/m2
11:35 4.3 °C 2.3 °C 1048.6 hPa West 6.4 km/h 8.0 km/h 87% 0.0 mm 213.00 W/m2
11:40 4.6 °C 2.6 °C 1048.6 hPa West 3.2 km/h 6.4 km/h 87% 0.0 mm 216.00 W/m2
11:45 4.7 °C 2.7 °C 1048.6 hPa WNW 6.4 km/h 6.4 km/h 87% 0.0 mm 221.00 W/m2
11:50 4.6 °C 2.6 °C 1048.6 hPa Calm   6.4 km/h 87% 0.0 mm 223.00 W/m2
11:55 5.4 °C 3.4 °C 1048.6 hPa WNW 3.2 km/h 3.2 km/h 87% 0.0 mm 227.00 W/m2
12:00 5.6 °C 3.4 °C 1048.6 hPa West 3.2 km/h 6.4 km/h 86% 0.0 mm 234.00 W/m2
12:05 5.4 °C 3.1 °C 1048.3 hPa West 4.7 km/h 9.7 km/h 85% 0.0 mm 237.00 W/m2
12:10 5.2 °C 2.9 °C 1048.3 hPa WNW 7.9 km/h 11.3 km/h 85% 0.0 mm 237.00 W/m2
12:15 5.6 °C 3.4 °C 1048.3 hPa West 4.7 km/h 8.0 km/h 86% 0.0 mm 244.00 W/m2
12:20 5.7 °C 3.5 °C 1048.0 hPa NW 1.4 km/h 6.4 km/h 86% 0.3 mm 246.00 W/m2
12:25 5.7 °C 3.5 °C 1048.0 hPa WNW 3.2 km/h 12.9 km/h 86% 0.3 mm 251.00 W/m2
12:30 6.0 °C 3.8 °C 1048.0 hPa NW 9.7 km/h 9.7 km/h 86% 0.3 mm 253.00 W/m2
12:35 6.1 °C 3.8 °C 1048.0 hPa WNW 4.7 km/h 9.7 km/h 85% 0.3 mm 255.00 W/m2
12:40 6.1 °C 3.8 °C 1048.0 hPa West 4.7 km/h 9.7 km/h 85% 0.3 mm 257.00 W/m2
12:45 6.2 °C 3.9 °C 1048.0 hPa WNW 7.9 km/h 11.3 km/h 85% 0.3 mm 251.00 W/m2
12:50 6.4 °C 4.1 °C 1047.6 hPa WNW 4.7 km/h 6.4 km/h 85% 0.3 mm 239.00 W/m2
12:55 6.4 °C 3.9 °C 1047.6 hPa West 7.9 km/h 12.9 km/h 84% 0.3 mm 243.00 W/m2
13:00 6.4 °C 3.9 °C 1047.6 hPa West 6.4 km/h 9.7 km/h 84% 0.3 mm 239.00 W/m2
13:05 6.8 °C 4.3 °C 1047.6 hPa West 3.2 km/h 8.0 km/h 84% 0.3 mm 223.00 W/m2
13:10 6.9 °C 4.2 °C 1047.6 hPa West 6.4 km/h 8.0 km/h 83% 0.3 mm 218.00 W/m2
13:15 6.8 °C 4.1 °C 1047.6 hPa West 4.7 km/h 6.4 km/h 83% 0.3 mm 213.00 W/m2
13:20 7.1 °C 4.4 °C 1047.3 hPa West 7.9 km/h 9.7 km/h 83% 0.0 mm 213.00 W/m2
13:25 7.2 °C 4.3 °C 1047.3 hPa West 7.9 km/h 11.3 km/h 82% 0.0 mm 197.00 W/m2
13:30 7.2 °C 4.2 °C 1047.3 hPa WNW 13.0 km/h 12.9 km/h 81% 0.0 mm 200.00 W/m2
13:35 7.3 °C 4.3 °C 1047.3 hPa West 6.4 km/h 8.0 km/h 81% 0.0 mm 202.00 W/m2
13:40 7.5 °C 4.3 °C 1047.3 hPa NW 4.7 km/h 6.4 km/h 80% 0.0 mm 211.00 W/m2
13:45 7.5 °C 4.1 °C 1047.3 hPa WNW 3.2 km/h 8.0 km/h 79% 0.0 mm 213.00 W/m2
13:50 7.6 °C 4.2 °C 1047.0 hPa NW 6.4 km/h 8.0 km/h 79% 0.0 mm 207.00 W/m2
13:55 7.8 °C 4.2 °C 1047.0 hPa NW 6.4 km/h 11.3 km/h 78% 0.0 mm 202.00 W/m2
14:00 7.7 °C 4.1 °C 1047.0 hPa West 6.4 km/h 11.3 km/h 78% 0.0 mm 193.00 W/m2
14:05 7.7 °C 3.9 °C 1047.0 hPa WNW 6.4 km/h 11.3 km/h 77% 0.0 mm 179.00 W/m2
14:10 7.8 °C 4.2 °C 1047.0 hPa WSW 6.4 km/h 8.0 km/h 78% 0.0 mm 172.00 W/m2
14:15 8.0 °C 4.2 °C 1046.6 hPa WSW 4.7 km/h 9.7 km/h 77% 0.0 mm 165.00 W/m2
14:20 8.0 °C 4.2 °C 1047.0 hPa WNW 3.2 km/h 8.0 km/h 77% 0.0 mm 149.00 W/m2
14:25 7.9 °C 4.1 °C 1046.6 hPa WNW 1.4 km/h 6.4 km/h 77% 0.0 mm 148.00 W/m2
14:30 8.1 °C 4.3 °C 1046.6 hPa WNW 3.2 km/h 4.8 km/h 77% 0.0 mm 148.00 W/m2
14:35 8.0 °C 4.2 °C 1046.6 hPa WSW 9.7 km/h 9.7 km/h 77% 0.0 mm 142.00 W/m2
14:40 7.9 °C 4.1 °C 1046.6 hPa West 1.4 km/h 8.0 km/h 77% 0.0 mm 137.00 W/m2
14:45 8.1 °C 4.3 °C 1046.6 hPa West 4.7 km/h 8.0 km/h 77% 0.0 mm 130.00 W/m2
14:50 7.8 °C 4.0 °C 1046.6 hPa West 6.4 km/h 8.0 km/h 77% 0.0 mm 121.00 W/m2
14:55 7.6 °C 3.8 °C 1046.6 hPa West 7.9 km/h 11.3 km/h 77% 0.0 mm 111.00 W/m2
15:00 7.7 °C 3.9 °C 1046.6 hPa WNW 9.7 km/h 9.7 km/h 77% 0.0 mm 104.00 W/m2
15:05 7.6 °C 3.8 °C 1046.6 hPa WNW 3.2 km/h 8.0 km/h 77% 0.0 mm 97.00 W/m2
15:10 7.7 °C 4.1 °C 1046.6 hPa West 3.2 km/h 8.0 km/h 78% 0.0 mm 90.00 W/m2
15:15 7.7 °C 4.1 °C 1046.6 hPa West 4.7 km/h 6.4 km/h 78% 0.0 mm 83.00 W/m2
15:20 7.7 °C 4.1 °C 1046.6 hPa West 3.2 km/h 6.4 km/h 78% 0.0 mm 72.00 W/m2
15:25 7.5 °C 3.7 °C 1046.6 hPa WNW 7.9 km/h 8.0 km/h 77% 0.0 mm 63.00 W/m2
15:30 7.4 °C 3.4 °C 1046.6 hPa West 3.2 km/h 8.0 km/h 76% 0.0 mm 56.00 W/m2
15:35 7.4 °C 3.4 °C 1046.3 hPa NW 3.2 km/h 4.8 km/h 76% 0.0 mm 47.00 W/m2
15:40 7.3 °C 3.3 °C 1046.3 hPa WNW 6.4 km/h 8.0 km/h 76% 0.0 mm 40.00 W/m2
15:45 7.2 °C 3.4 °C 1046.3 hPa WNW 4.7 km/h 6.4 km/h 77% 0.0 mm 33.00 W/m2
15:50 7.3 °C 3.5 °C 1046.3 hPa WNW 3.2 km/h 3.2 km/h 77% 0.0 mm 26.00 W/m2
15:55 7.3 °C 3.7 °C 1046.6 hPa WNW 1.4 km/h 6.4 km/h 78% 0.0 mm 23.00 W/m2
16:00 7.4 °C 3.8 °C 1046.6 hPa WNW 1.4 km/h 3.2 km/h 78% 0.0 mm 19.00 W/m2
16:05 7.6 °C 4.0 °C 1046.3 hPa WNW 3.2 km/h 3.2 km/h 78% 0.0 mm 18.00 W/m2
16:10 7.4 °C 3.8 °C 1046.3 hPa Calm   3.2 km/h 78% 0.0 mm 14.00 W/m2
16:15 7.3 °C 3.9 °C 1046.3 hPa WNW 1.4 km/h 3.2 km/h 79% 0.0 mm 12.00 W/m2
16:20 7.2 °C 3.8 °C 1046.3 hPa Calm   3.2 km/h 79% 0.0 mm 11.00 W/m2
16:25 7.1 °C 3.7 °C 1046.3 hPa Calm   1.6 km/h 79% 0.0 mm 9.00 W/m2
16:30 6.8 °C 3.6 °C 1046.3 hPa Calm     80% 0.0 mm 7.00 W/m2
16:35 6.6 °C 3.4 °C 1046.3 hPa Calm   1.6 km/h 80% 0.0 mm 5.00 W/m2
16:40 6.2 °C 3.2 °C 1046.3 hPa WNW 4.8 km/h 4.8 km/h 81% 0.0 mm 0.00 W/m2
16:45 5.8 °C 3.0 °C 1046.3 hPa WNW 3.2 km/h 3.2 km/h 82% 0.0 mm 0.00 W/m2
16:50 5.7 °C 3.0 °C 1046.3 hPa Calm     83% 0.0 mm 0.00 W/m2
16:55 5.3 °C 2.6 °C 1046.3 hPa WNW 3.2 km/h 3.2 km/h 83% 0.0 mm 0.00 W/m2
17:00 4.9 °C 2.4 °C 1046.3 hPa WNW 3.2 km/h 4.8 km/h 84% 0.0 mm 0.00 W/m2
17:05 4.7 °C 2.4 °C 1046.3 hPa WNW 1.4 km/h 3.2 km/h 85% 0.0 mm 0.00 W/m2
17:10 4.4 °C 2.1 °C 1046.3 hPa Calm   3.2 km/h 85% 0.0 mm 0.00 W/m2
17:15 4.1 °C 2.0 °C 1046.3 hPa Calm   1.6 km/h 86% 0.0 mm 0.00 W/m2
17:20 4.1 °C 2.0 °C 1046.3 hPa Calm     86% 0.0 mm 0.00 W/m2
17:25 3.8 °C 1.7 °C 1046.3 hPa Calm   3.2 km/h 86% 0.0 mm 0.00 W/m2
17:30 3.8 °C 1.8 °C 1046.3 hPa Calm   1.6 km/h 87% 0.0 mm 0.00 W/m2
17:35 3.8 °C 1.8 °C 1046.3 hPa WNW 1.4 km/h 1.6 km/h 87% 0.0 mm 0.00 W/m2
17:40 3.8 °C 2.0 °C 1046.3 hPa Calm     88% 0.0 mm 0.00 W/m2
17:45 3.4 °C 1.6 °C 1046.3 hPa WNW 1.4 km/h 4.8 km/h 88% 0.0 mm 0.00 W/m2
17:50 3.3 °C 1.5 °C 1046.3 hPa Calm   3.2 km/h 88% 0.0 mm 0.00 W/m2
17:55 3.3 °C 1.5 °C 1046.3 hPa Calm     88% 0.0 mm 0.00 W/m2
18:00 3.3 °C 1.7 °C 1045.9 hPa Calm   1.6 km/h 89% 0.0 mm 0.00 W/m2
18:05 3.3 °C 1.7 °C 1045.9 hPa Calm     89% 0.0 mm 0.00 W/m2
18:10 3.3 °C 1.7 °C 1046.3 hPa Calm   1.6 km/h 89% 0.0 mm 0.00 W/m2
18:15 3.1 °C 1.5 °C 1045.9 hPa Calm     89% 0.0 mm 0.00 W/m2
18:20 3.1 °C 1.5 °C 1045.9 hPa Calm   1.6 km/h 89% 0.0 mm 0.00 W/m2
18:25 3.0 °C 1.4 °C 1045.9 hPa Calm   1.6 km/h 89% 0.0 mm 0.00 W/m2
18:30 2.9 °C 1.3 °C 1046.3 hPa WNW 1.4 km/h 1.6 km/h 89% 0.0 mm 0.00 W/m2
18:35 2.8 °C 1.3 °C 1045.9 hPa WNW 1.4 km/h 1.6 km/h 90% 0.0 mm 0.00 W/m2
18:40 2.6 °C 1.0 °C 1045.9 hPa Calm   1.6 km/h 89% 0.0 mm 0.00 W/m2
18:45 2.6 °C 1.1 °C 1045.9 hPa Calm     90% 0.0 mm 0.00 W/m2
18:50 2.5 °C 1.0 °C 1045.9 hPa WNW 1.4 km/h 1.6 km/h 90% 0.0 mm 0.00 W/m2
18:55 2.4 °C 0.9 °C 1045.9 hPa Calm     90% 0.0 mm 0.00 W/m2
19:00 2.3 °C 0.8 °C 1045.9 hPa Calm     90% 0.0 mm 0.00 W/m2
19:05 2.2 °C 0.7 °C 1045.9 hPa Calm     90% 0.0 mm 0.00 W/m2
19:10 2.1 °C 0.6 °C 1045.9 hPa Calm   1.6 km/h 90% 0.0 mm 0.00 W/m2
19:15 2.1 °C 0.6 °C 1045.9 hPa Calm   1.6 km/h 90% 0.0 mm 0.00 W/m2
19:20 2.2 °C 0.7 °C 1045.9 hPa Calm   1.6 km/h 90% 0.0 mm 0.00 W/m2
19:25 2.0 °C 0.7 °C 1045.9 hPa Calm   1.6 km/h 91% 0.0 mm 0.00 W/m2
19:30 1.9 °C 0.6 °C 1045.9 hPa Calm   1.6 km/h 91% 0.0 mm 0.00 W/m2
19:35 1.8 °C 0.5 °C 1045.6 hPa Calm   1.6 km/h 91% 0.0 mm 0.00 W/m2
19:40 1.8 °C 0.5 °C 1045.9 hPa Calm   1.6 km/h 91% 0.0 mm 0.00 W/m2
19:45 1.8 °C 0.5 °C 1045.9 hPa Calm   1.6 km/h 91% 0.0 mm 0.00 W/m2
19:50 1.8 °C 0.5 °C 1045.9 hPa Calm     91% 0.0 mm 0.00 W/m2
19:55 1.7 °C 0.4 °C 1045.9 hPa Calm     91% 0.0 mm 0.00 W/m2
20:00 1.5 °C 0.2 °C 1045.9 hPa WNW 1.4 km/h 3.2 km/h 91% 0.0 mm 0.00 W/m2
20:05 1.5 °C 0.2 °C 1045.6 hPa WNW 3.2 km/h 4.8 km/h 91% 0.0 mm 0.00 W/m2
20:10 1.7 °C 0.4 °C 1045.6 hPa Calm   3.2 km/h 91% 0.0 mm 0.00 W/m2
20:15 1.7 °C 0.4 °C 1045.6 hPa Calm     91% 0.0 mm 0.00 W/m2
20:20 1.6 °C 0.4 °C 1045.6 hPa Calm     92% 0.0 mm 0.00 W/m2
20:26 1.4 °C 0.2 °C 1045.6 hPa Calm     92% 0.0 mm 0.00 W/m2
20:30 1.4 °C 0.2 °C 1045.6 hPa Calm     92% 0.0 mm 0.00 W/m2
20:35 1.3 °C 0.0 °C 1045.6 hPa Calm     91% 0.0 mm 0.00 W/m2
20:40 1.2 °C 0.0 °C 1045.3 hPa Calm     92% 0.0 mm 0.00 W/m2
20:45 1.2 °C 0.0 °C 1045.3 hPa Calm     92% 0.0 mm 0.00 W/m2
20:50 1.2 °C 0.0 °C 1045.3 hPa Calm     92% 0.0 mm 0.00 W/m2
20:55 1.1 °C -0.1 °C 1045.3 hPa Calm   1.6 km/h 92% 0.0 mm 0.00 W/m2
21:00 1.1 °C -0.1 °C 1045.3 hPa WNW 3.2 km/h 4.8 km/h 92% 0.0 mm 0.00 W/m2
21:05 1.1 °C -0.1 °C 1045.3 hPa WNW 1.4 km/h 3.2 km/h 92% 0.0 mm 0.00 W/m2
21:10 1.0 °C -0.2 °C 1044.9 hPa Calm   1.6 km/h 92% 0.0 mm 0.00 W/m2
21:15 0.9 °C -0.3 °C 1045.3 hPa Calm     92% 0.0 mm 0.00 W/m2
21:20 1.0 °C -0.2 °C 1045.3 hPa Calm     92% 0.0 mm 0.00 W/m2
21:26 1.1 °C -0.1 °C 1045.3 hPa Calm     92% 0.0 mm 0.00 W/m2
21:30 1.0 °C -0.2 °C 1044.9 hPa Calm   1.6 km/h 92% 0.0 mm 0.00 W/m2
21:35 0.9 °C -0.3 °C 1045.3 hPa Calm   1.6 km/h 92% 0.0 mm 0.00 W/m2
21:40 0.8 °C -0.4 °C 1045.3 hPa Calm   3.2 km/h 92% 0.0 mm 0.00 W/m2
21:45 0.6 °C -0.5 °C 1045.3 hPa Calm   1.6 km/h 92% 0.0 mm 0.00 W/m2
21:50 0.7 °C -0.5 °C 1045.3 hPa Calm     92% 0.0 mm 0.00 W/m2
21:55 0.6 °C -0.5 °C 1045.3 hPa Calm     92% 0.0 mm 0.00 W/m2
22:00 0.6 °C -0.5 °C 1045.3 hPa Calm   1.6 km/h 92% 0.0 mm 0.00 W/m2
22:05 0.5 °C -0.6 °C 1044.9 hPa Calm   1.6 km/h 92% 0.0 mm 0.00 W/m2
22:10 0.5 °C -0.6 °C 1044.9 hPa WNW 1.4 km/h 1.6 km/h 92% 0.0 mm 0.00 W/m2
22:15 0.5 °C -0.6 °C 1044.9 hPa WNW 1.4 km/h 3.2 km/h 92% 0.0 mm 0.00 W/m2
22:20 0.5 °C -0.6 °C 1044.9 hPa WNW 1.4 km/h 1.6 km/h 92% 0.0 mm 0.00 W/m2
22:25 0.5 °C -0.6 °C 1044.9 hPa WNW 1.4 km/h 3.2 km/h 92% 0.0 mm 0.00 W/m2
22:30 0.4 °C -0.6 °C 1044.9 hPa Calm   1.6 km/h 93% 0.0 mm 0.00 W/m2
22:35 0.4 °C -0.6 °C 1044.9 hPa WNW 1.4 km/h 3.2 km/h 93% 0.0 mm 0.00 W/m2
22:40 0.4 °C -0.6 °C 1044.9 hPa WNW 3.2 km/h 3.2 km/h 93% 0.0 mm 0.00 W/m2
22:45 0.2 °C -0.8 °C 1044.9 hPa Calm   1.6 km/h 93% 0.0 mm 0.00 W/m2
22:50 0.1 °C -0.9 °C 1045.3 hPa Calm   1.6 km/h 93% 0.0 mm 0.00 W/m2
22:55 0.1 °C -0.9 °C 1044.9 hPa WNW 1.4 km/h 3.2 km/h 93% 0.0 mm 0.00 W/m2
23:00 0.1 °C -0.9 °C 1044.9 hPa Calm   1.6 km/h 93% 0.0 mm 0.00 W/m2
23:05 0.2 °C -0.8 °C 1044.9 hPa Calm   1.6 km/h 93% 0.0 mm 0.00 W/m2
23:10 0.2 °C -0.8 °C 1044.9 hPa Calm     93% 0.0 mm 0.00 W/m2
23:15 0.1 °C -0.9 °C 1044.9 hPa Calm     93% 0.0 mm 0.00 W/m2
23:20 0.1 °C -0.9 °C 1044.9 hPa Calm   1.6 km/h 93% 0.0 mm 0.00 W/m2
23:25 0.1 °C -0.9 °C 1044.9 hPa WNW 1.4 km/h 1.6 km/h 93% 0.0 mm 0.00 W/m2
23:30 0.1 °C -0.9 °C 1044.9 hPa WNW 1.4 km/h 1.6 km/h 93% 0.0 mm 0.00 W/m2
23:35 0.0 °C -1.0 °C 1044.9 hPa WNW 1.4 km/h 1.6 km/h 93% 0.0 mm 0.00 W/m2
23:40 0.0 °C -1.0 °C 1044.9 hPa Calm   1.6 km/h 93% 0.0 mm 0.00 W/m2
23:45 0.0 °C -1.0 °C 1044.9 hPa Calm   1.6 km/h 93% 0.0 mm 0.00 W/m2
23:50 -0.1 °C -1.1 °C 1044.9 hPa Calm   1.6 km/h 93% 0.0 mm 0.00 W/m2
23:55 -0.2 °C -1.2 °C 1044.9 hPa Calm   1.6 km/h 93% 0.0 mm 0.00 W/m2